sensor_id;sensor_type;location;lat;lon;timestamp;pressure;altitude;pressure_sealevel;temperature;humidity
4085;BME280;2057;50.858;6.572;2023-02-18T00:01:53;101119.13;;;10.50;100.00
4085;BME280;2057;50.858;6.572;2023-02-18T00:04:18;101120.03;;;10.38;100.00
4085;BME280;2057;50.858;6.572;2023-02-18T00:06:43;101124.25;;;10.37;100.00
4085;BME280;2057;50.858;6.572;2023-02-18T00:09:09;101120.72;;;10.35;100.00
4085;BME280;2057;50.858;6.572;2023-02-18T00:11:36;101125.25;;;10.39;100.00
4085;BME280;2057;50.858;6.572;2023-02-18T00:14:04;101113.50;;;10.41;100.00
4085;BME280;2057;50.858;6.572;2023-02-18T00:16:29;101113.59;;;10.43;100.00
4085;BME280;2057;50.858;6.572;2023-02-18T00:19:00;101112.53;;;10.39;100.00
4085;BME280;2057;50.858;6.572;2023-02-18T00:21:26;101118.09;;;10.33;100.00
4085;BME280;2057;50.858;6.572;2023-02-18T00:23:52;101118.25;;;10.36;100.00
4085;BME280;2057;50.858;6.572;2023-02-18T00:26:18;101118.25;;;10.36;100.00
4085;BME280;2057;50.858;6.572;2023-02-18T00:28:44;101122.38;;;10.34;100.00
4085;BME280;2057;50.858;6.572;2023-02-18T00:31:15;101111.56;;;10.37;100.00
4085;BME280;2057;50.858;6.572;2023-02-18T00:33:42;101096.97;;;10.48;100.00
4085;BME280;2057;50.858;6.572;2023-02-18T00:36:12;101089.00;;;10.42;100.00
4085;BME280;2057;50.858;6.572;2023-02-18T00:38:38;101083.31;;;10.46;100.00
4085;BME280;2057;50.858;6.572;2023-02-18T00:41:04;101086.94;;;10.36;100.00
4085;BME280;2057;50.858;6.572;2023-02-18T00:43:31;101085.69;;;10.29;100.00
4085;BME280;2057;50.858;6.572;2023-02-18T00:45:56;101087.09;;;10.24;100.00
4085;BME280;2057;50.858;6.572;2023-02-18T00:48:21;101074.13;;;10.19;100.00
4085;BME280;2057;50.858;6.572;2023-02-18T00:50:47;101078.78;;;10.27;100.00
4085;BME280;2057;50.858;6.572;2023-02-18T00:53:13;101077.44;;;10.18;100.00
4085;BME280;2057;50.858;6.572;2023-02-18T00:55:42;101082.88;;;10.25;100.00
4085;BME280;2057;50.858;6.572;2023-02-18T00:58:09;101072.44;;;10.20;100.00
4085;BME280;2057;50.858;6.572;2023-02-18T01:00:37;101071.06;;;10.25;100.00
4085;BME280;2057;50.858;6.572;2023-02-18T01:03:03;101074.13;;;10.19;100.00
4085;BME280;2057;50.858;6.572;2023-02-18T01:05:30;101076.22;;;10.27;100.00
4085;BME280;2057;50.858;6.572;2023-02-18T01:07:56;101074.31;;;10.23;100.00
4085;BME280;2057;50.858;6.572;2023-02-18T01:10:21;101058.38;;;10.25;100.00
4085;BME280;2057;50.858;6.572;2023-02-18T01:12:46;101053.31;;;10.25;100.00
4085;BME280;2057;50.858;6.572;2023-02-18T01:15:14;101059.41;;;10.14;100.00
4085;BME280;2057;50.858;6.572;2023-02-18T01:17:40;101054.88;;;10.23;100.00
4085;BME280;2057;50.858;6.572;2023-02-18T01:20:06;101053.91;;;10.21;100.00
4085;BME280;2057;50.858;6.572;2023-02-18T01:22:32;101061.56;;;10.08;100.00
4085;BME280;2057;50.858;6.572;2023-02-18T01:24:57;101063.69;;;10.15;100.00
4085;BME280;2057;50.858;6.572;2023-02-18T01:27:23;101051.44;;;10.08;100.00
4085;BME280;2057;50.858;6.572;2023-02-18T01:29:49;101041.72;;;10.15;100.00
4085;BME280;2057;50.858;6.572;2023-02-18T01:32:14;101036.63;;;10.15;100.00
4085;BME280;2057;50.858;6.572;2023-02-18T01:34:39;101021.97;;;10.10;100.00
4085;BME280;2057;50.858;6.572;2023-02-18T01:37:05;101031.56;;;10.15;100.00
4085;BME280;2057;50.858;6.572;2023-02-18T01:39:30;101036.97;;;10.07;100.00
4085;BME280;2057;50.858;6.572;2023-02-18T01:41:55;101028.59;;;10.08;100.00
4085;BME280;2057;50.858;6.572;2023-02-18T01:44:24;101035.31;;;10.07;100.00
4085;BME280;2057;50.858;6.572;2023-02-18T01:46:50;101016.88;;;10.10;100.00
4085;BME280;2057;50.858;6.572;2023-02-18T01:49:30;101014.34;;;10.10;100.00
4085;BME280;2057;50.858;6.572;2023-02-18T01:52:15;101011.53;;;10.05;100.00
4085;BME280;2057;50.858;6.572;2023-02-18T01:54:47;101009.16;;;10.08;100.00
4085;BME280;2057;50.858;6.572;2023-02-18T01:57:20;101014.78;;;10.17;100.00
4085;BME280;2057;50.858;6.572;2023-02-18T01:59:58;101005.34;;;10.15;100.00
4085;BME280;2057;50.858;6.572;2023-02-18T02:02:27;101005.53;;;10.18;100.00
4085;BME280;2057;50.858;6.572;2023-02-18T02:04:53;100999.19;;;10.11;100.00
4085;BME280;2057;50.858;6.572;2023-02-18T02:07:20;100988.88;;;10.23;100.00
4085;BME280;2057;50.858;6.572;2023-02-18T02:09:47;100992.91;;;10.19;100.00
4085;BME280;2057;50.858;6.572;2023-02-18T02:12:42;100985.56;;;10.24;100.00
4085;BME280;2057;50.858;6.572;2023-02-18T02:37:30;100964.22;;;10.20;100.00
4085;BME280;2057;50.858;6.572;2023-02-18T02:43:06;100967.88;;;10.26;100.00
4085;BME280;2057;50.858;6.572;2023-02-18T02:48:48;100961.84;;;10.24;100.00
4085;BME280;2057;50.858;6.572;2023-02-18T02:51:14;100955.31;;;10.27;100.00
4085;BME280;2057;50.858;6.572;2023-02-18T02:53:41;100959.31;;;10.24;100.00
4085;BME280;2057;50.858;6.572;2023-02-18T02:56:23;100950.03;;;10.24;100.00
4085;BME280;2057;50.858;6.572;2023-02-18T02:59:01;100948.47;;;10.26;100.00
4085;BME280;2057;50.858;6.572;2023-02-18T03:01:43;100942.69;;;10.29;100.00
4085;BME280;2057;50.858;6.572;2023-02-18T03:04:22;100935.25;;;10.17;100.00
4085;BME280;2057;50.858;6.572;2023-02-18T03:12:46;100924.06;;;10.13;100.00
4085;BME280;2057;50.858;6.572;2023-02-18T03:15:36;100911.53;;;10.16;100.00
4085;BME280;2057;50.858;6.572;2023-02-18T03:18:18;100903.66;;;10.12;100.00
4085;BME280;2057;50.858;6.572;2023-02-18T03:20:57;100894.22;;;10.09;100.00
4085;BME280;2057;50.858;6.572;2023-02-18T03:23:28;100901.03;;;10.10;100.00
4085;BME280;2057;50.858;6.572;2023-02-18T03:25:57;100901.31;;;10.15;100.00
4085;BME280;2057;50.858;6.572;2023-02-18T03:28:25;100896.66;;;10.08;100.00
4085;BME280;2057;50.858;6.572;2023-02-18T03:30:55;100893.94;;;10.04;100.00
4085;BME280;2057;50.858;6.572;2023-02-18T03:33:30;100886.59;;;10.09;100.00
4085;BME280;2057;50.858;6.572;2023-02-18T03:35:56;100892.13;;;10.02;100.00
4085;BME280;2057;50.858;6.572;2023-02-18T03:38:25;100894.91;;;10.07;100.00
4085;BME280;2057;50.858;6.572;2023-02-18T03:40:54;100895.94;;;9.95;100.00
4085;BME280;2057;50.858;6.572;2023-02-18T03:43:22;100899.25;;;9.94;100.00
4085;BME280;2057;50.858;6.572;2023-02-18T03:45:50;100894.19;;;9.94;100.00
4085;BME280;2057;50.858;6.572;2023-02-18T03:48:16;100893.06;;;9.89;100.00
4085;BME280;2057;50.858;6.572;2023-02-18T03:50:41;100900.31;;;9.83;100.00
4085;BME280;2057;50.858;6.572;2023-02-18T03:53:07;100883.09;;;9.92;100.00
4085;BME280;2057;50.858;6.572;2023-02-18T03:55:32;100886.94;;;9.85;100.00
4085;BME280;2057;50.858;6.572;2023-02-18T03:57:57;100890.34;;;9.86;100.00
4085;BME280;2057;50.858;6.572;2023-02-18T04:00:23;100881.94;;;9.87;100.00
4085;BME280;2057;50.858;6.572;2023-02-18T04:02:48;100883.50;;;9.85;100.00
4085;BME280;2057;50.858;6.572;2023-02-18T04:05:13;100888.22;;;9.79;100.00
4085;BME280;2057;50.858;6.572;2023-02-18T04:07:39;100889.41;;;9.84;100.00
4085;BME280;2057;50.858;6.572;2023-02-18T04:10:05;100877.56;;;9.84;100.00
4085;BME280;2057;50.858;6.572;2023-02-18T04:12:31;100879.84;;;9.80;100.00
4085;BME280;2057;50.858;6.572;2023-02-18T04:14:56;100862.09;;;9.80;100.00
4085;BME280;2057;50.858;6.572;2023-02-18T04:17:21;100865.34;;;9.77;100.00
4085;BME280;2057;50.858;6.572;2023-02-18T04:19:47;100860.00;;;9.72;100.00
4085;BME280;2057;50.858;6.572;2023-02-18T04:22:12;100853.34;;;9.75;100.00
4085;BME280;2057;50.858;6.572;2023-02-18T04:24:37;100855.00;;;9.74;100.00
4085;BME280;2057;50.858;6.572;2023-02-18T04:27:03;100859.09;;;9.72;100.00
4085;BME280;2057;50.858;6.572;2023-02-18T04:29:28;100866.81;;;9.73;100.00
4085;BME280;2057;50.858;6.572;2023-02-18T04:31:54;100864.59;;;9.65;100.00
4085;BME280;2057;50.858;6.572;2023-02-18T04:34:19;100868.31;;;9.70;100.00
4085;BME280;2057;50.858;6.572;2023-02-18T04:36:44;100867.91;;;9.64;100.00
4085;BME280;2057;50.858;6.572;2023-02-18T04:39:10;100870.91;;;9.71;100.00
4085;BME280;2057;50.858;6.572;2023-02-18T04:41:35;100862.00;;;9.63;100.00
4085;BME280;2057;50.858;6.572;2023-02-18T04:44:00;100859.63;;;9.66;100.00
4085;BME280;2057;50.858;6.572;2023-02-18T04:46:26;100861.00;;;9.61;100.00
4085;BME280;2057;50.858;6.572;2023-02-18T04:48:51;100861.78;;;9.60;100.00
4085;BME280;2057;50.858;6.572;2023-02-18T04:51:17;100859.44;;;9.63;100.00
4085;BME280;2057;50.858;6.572;2023-02-18T04:53:42;100852.81;;;9.65;100.00
4085;BME280;2057;50.858;6.572;2023-02-18T04:56:07;100839.16;;;9.63;100.00
4085;BME280;2057;50.858;6.572;2023-02-18T04:58:33;100845.03;;;9.62;100.00
4085;BME280;2057;50.858;6.572;2023-02-18T05:01:00;100846.06;;;9.66;100.00
4085;BME280;2057;50.858;6.572;2023-02-18T05:03:26;100848.81;;;9.69;100.00
4085;BME280;2057;50.858;6.572;2023-02-18T05:05:52;100844.00;;;9.73;100.00
4085;BME280;2057;50.858;6.572;2023-02-18T05:08:17;100845.63;;;9.73;100.00
4085;BME280;2057;50.858;6.572;2023-02-18T05:10:43;100836.66;;;9.78;100.00
4085;BME280;2057;50.858;6.572;2023-02-18T05:13:08;100832.38;;;9.77;100.00
4085;BME280;2057;50.858;6.572;2023-02-18T05:15:34;100836.66;;;9.78;100.00
4085;BME280;2057;50.858;6.572;2023-02-18T05:17:59;100842.59;;;9.79;100.00
4085;BME280;2057;50.858;6.572;2023-02-18T05:20:25;100837.19;;;9.72;100.00
4085;BME280;2057;50.858;6.572;2023-02-18T05:22:50;100831.41;;;9.75;100.00
4085;BME280;2057;50.858;6.572;2023-02-18T05:25:16;100831.06;;;9.69;100.00
4085;BME280;2057;50.858;6.572;2023-02-18T05:27:41;100828.41;;;9.67;100.00
4085;BME280;2057;50.858;6.572;2023-02-18T05:30:07;100821.78;;;9.69;100.00
4085;BME280;2057;50.858;6.572;2023-02-18T05:32:32;100819.09;;;9.66;100.00
4085;BME280;2057;50.858;6.572;2023-02-18T05:34:58;100824.94;;;9.65;100.00
4085;BME280;2057;50.858;6.572;2023-02-18T05:37:23;100827.72;;;9.70;100.00
4085;BME280;2057;50.858;6.572;2023-02-18T05:39:48;100823.59;;;9.72;100.00
4085;BME280;2057;50.858;6.572;2023-02-18T05:42:14;100831.41;;;9.75;100.00
4085;BME280;2057;50.858;6.572;2023-02-18T05:44:39;100827.19;;;9.76;100.00
4085;BME280;2057;50.858;6.572;2023-02-18T05:47:08;100824.13;;;9.81;100.00
4085;BME280;2057;50.858;6.572;2023-02-18T05:49:34;100823.47;;;9.84;100.00
4085;BME280;2057;50.858;6.572;2023-02-18T05:52:00;100816.78;;;9.86;100.00
4085;BME280;2057;50.858;6.572;2023-02-18T05:54:26;100821.28;;;9.90;100.00
4085;BME280;2057;50.858;6.572;2023-02-18T05:56:53;100818.53;;;9.87;100.00
4085;BME280;2057;50.858;6.572;2023-02-18T05:59:18;100814.53;;;9.91;100.00
4085;BME280;2057;50.858;6.572;2023-02-18T06:01:45;100800.19;;;9.91;100.00
4085;BME280;2057;50.858;6.572;2023-02-18T06:04:10;100793.63;;;9.95;100.00
4085;BME280;2057;50.858;6.572;2023-02-18T06:06:36;100795.19;;;9.93;100.00
4085;BME280;2057;50.858;6.572;2023-02-18T06:09:02;100780.84;;;9.93;100.00
4085;BME280;2057;50.858;6.572;2023-02-18T06:11:27;100786.72;;;9.92;100.00
4085;BME280;2057;50.858;6.572;2023-02-18T06:13:54;100778.94;;;9.89;100.00
4085;BME280;2057;50.858;6.572;2023-02-18T06:16:19;100774.91;;;9.93;100.00
4085;BME280;2057;50.858;6.572;2023-02-18T06:18:45;100795.19;;;9.93;100.00
4085;BME280;2057;50.858;6.572;2023-02-18T06:21:10;100777.19;;;9.88;100.00
4085;BME280;2057;50.858;6.572;2023-02-18T06:23:35;100785.56;;;9.87;100.00
4085;BME280;2057;50.858;6.572;2023-02-18T06:26:01;100773.88;;;9.89;100.00
4085;BME280;2057;50.858;6.572;2023-02-18T06:28:26;100769.56;;;9.88;100.00
4085;BME280;2057;50.858;6.572;2023-02-18T06:30:52;100767.81;;;9.87;100.00
4085;BME280;2057;50.858;6.572;2023-02-18T06:33:17;100761.78;;;9.85;100.00
4085;BME280;2057;50.858;6.572;2023-02-18T06:35:53;100782.19;;;9.86;100.00
4085;BME280;2057;50.858;6.572;2023-02-18T06:38:18;100784.00;;;9.89;100.00
4085;BME280;2057;50.858;6.572;2023-02-18T06:40:46;100785.91;;;9.93;100.00
4085;BME280;2057;50.858;6.572;2023-02-18T06:43:11;100782.44;;;9.91;100.00
4085;BME280;2057;50.858;6.572;2023-02-18T06:45:37;100774.72;;;9.89;100.00
4085;BME280;2057;50.858;6.572;2023-02-18T06:48:03;100784.72;;;9.86;100.00
4085;BME280;2057;50.858;6.572;2023-02-18T06:50:28;100783.03;;;9.87;100.00
4085;BME280;2057;50.858;6.572;2023-02-18T06:52:54;100768.78;;;9.89;100.00
4085;BME280;2057;50.858;6.572;2023-02-18T06:55:19;100771.50;;;9.92;100.00
4085;BME280;2057;50.858;6.572;2023-02-18T06:57:44;100763.72;;;9.89;100.00
4085;BME280;2057;50.858;6.572;2023-02-18T07:00:10;100757.94;;;9.92;100.00
4085;BME280;2057;50.858;6.572;2023-02-18T07:02:35;100756.38;;;9.79;100.00
4085;BME280;2057;50.858;6.572;2023-02-18T07:05:01;100773.41;;;9.81;100.00
4085;BME280;2057;50.858;6.572;2023-02-18T07:07:26;100761.44;;;9.79;100.00
4085;BME280;2057;50.858;6.572;2023-02-18T07:09:51;100772.28;;;9.76;100.00
4085;BME280;2057;50.858;6.572;2023-02-18T07:12:17;100775.09;;;9.81;100.00
4085;BME280;2057;50.858;6.572;2023-02-18T07:14:42;100782.06;;;9.85;100.00
4085;BME280;2057;50.858;6.572;2023-02-18T07:17:07;100775.28;;;9.84;100.00
4085;BME280;2057;50.858;6.572;2023-02-18T07:19:33;100778.94;;;9.89;100.00
4085;BME280;2057;50.858;6.572;2023-02-18T07:21:58;100775.97;;;9.81;100.00
4085;BME280;2057;50.858;6.572;2023-02-18T07:24:24;100777.81;;;9.84;100.00
4085;BME280;2057;50.858;6.572;2023-02-18T07:26:49;100790.56;;;9.85;100.00
4085;BME280;2057;50.858;6.572;2023-02-18T07:29:15;100789.28;;;9.92;100.00
4085;BME280;2057;50.858;6.572;2023-02-18T07:31:40;100785.41;;;9.84;100.00
4085;BME280;2057;50.858;6.572;2023-02-18T07:34:05;100796.50;;;9.86;100.00
4085;BME280;2057;50.858;6.572;2023-02-18T07:36:33;100796.34;;;9.83;100.00
4085;BME280;2057;50.858;6.572;2023-02-18T07:38:58;100788.91;;;9.86;100.00
4085;BME280;2057;50.858;6.572;2023-02-18T07:41:23;100781.66;;;9.77;100.00
4085;BME280;2057;50.858;6.572;2023-02-18T07:43:49;100794.84;;;9.71;100.00
4085;BME280;2057;50.858;6.572;2023-02-18T07:46:15;100784.97;;;9.76;100.00
4085;BME280;2057;50.858;6.572;2023-02-18T07:48:41;100778.34;;;9.78;100.00
4085;BME280;2057;50.858;6.572;2023-02-18T07:51:07;100787.69;;;9.79;100.00
4085;BME280;2057;50.858;6.572;2023-02-18T07:53:34;100787.78;;;9.81;100.00
4085;BME280;2057;50.858;6.572;2023-02-18T07:56:00;100789.34;;;9.79;100.00
4085;BME280;2057;50.858;6.572;2023-02-18T07:58:28;100808.66;;;9.77;100.00
4085;BME280;2057;50.858;6.572;2023-02-18T08:00:54;100800.25;;;9.78;100.00
4085;BME280;2057;50.858;6.572;2023-02-18T08:03:25;100785.06;;;9.78;100.00
4085;BME280;2057;50.858;6.572;2023-02-18T08:05:51;100790.75;;;9.73;100.00
4085;BME280;2057;50.858;6.572;2023-02-18T08:08:20;100794.78;;;9.70;100.00
4085;BME280;2057;50.858;6.572;2023-02-18T08:10:46;100823.53;;;9.70;100.00
4085;BME280;2057;50.858;6.572;2023-02-18T08:13:12;100801.69;;;9.72;100.00
4085;BME280;2057;50.858;6.572;2023-02-18T08:15:39;100813.72;;;9.77;100.00
4085;BME280;2057;50.858;6.572;2023-02-18T08:18:05;100809.09;;;9.84;100.00
4085;BME280;2057;50.858;6.572;2023-02-18T08:20:35;100811.19;;;9.77;100.00
4085;BME280;2057;50.858;6.572;2023-02-18T08:23:02;100802.03;;;9.79;99.58
4085;BME280;2057;50.858;6.572;2023-02-18T08:25:27;100810.78;;;9.84;99.50
4085;BME280;2057;50.858;6.572;2023-02-18T08:27:52;100815.66;;;9.81;99.69
4085;BME280;2057;50.858;6.572;2023-02-18T08:30:18;100825.81;;;9.81;99.77
4085;BME280;2057;50.858;6.572;2023-02-18T08:32:43;100822.50;;;9.82;99.76
4085;BME280;2057;50.858;6.572;2023-02-18T08:35:10;100823.78;;;9.75;100.00
4085;BME280;2057;50.858;6.572;2023-02-18T08:37:35;100829.91;;;9.79;100.00
4085;BME280;2057;50.858;6.572;2023-02-18T08:40:01;100823.53;;;9.70;100.00
4085;BME280;2057;50.858;6.572;2023-02-18T08:42:27;100838.75;;;9.70;100.00
4085;BME280;2057;50.858;6.572;2023-02-18T08:44:52;100823.53;;;9.70;100.00
4085;BME280;2057;50.858;6.572;2023-02-18T08:47:17;100841.81;;;9.80;100.00
4085;BME280;2057;50.858;6.572;2023-02-18T08:49:43;100839.72;;;9.72;100.00
4085;BME280;2057;50.858;6.572;2023-02-18T08:52:08;100836.28;;;9.72;100.00
4085;BME280;2057;50.858;6.572;2023-02-18T08:54:33;100839.28;;;9.80;100.00
4085;BME280;2057;50.858;6.572;2023-02-18T08:56:59;100836.72;;;9.80;100.00
4085;BME280;2057;50.858;6.572;2023-02-18T08:59:25;100836.31;;;9.87;100.00
4085;BME280;2057;50.858;6.572;2023-02-18T09:01:53;100828.59;;;9.85;100.00
4085;BME280;2057;50.858;6.572;2023-02-18T09:04:18;100825.72;;;9.94;100.00
4085;BME280;2057;50.858;6.572;2023-02-18T09:06:46;100814.88;;;9.97;99.77
4085;BME280;2057;50.858;6.572;2023-02-18T09:09:11;100827.19;;;10.05;99.74
4085;BME280;2057;50.858;6.572;2023-02-18T09:11:37;100826.25;;;10.03;98.77
4085;BME280;2057;50.858;6.572;2023-02-18T09:14:02;100821.59;;;10.11;98.35
4085;BME280;2057;50.858;6.572;2023-02-18T09:16:29;100818.28;;;10.12;98.43
4085;BME280;2057;50.858;6.572;2023-02-18T09:18:55;100809.78;;;10.12;98.97
4085;BME280;2057;50.858;6.572;2023-02-18T09:21:21;100820.28;;;10.18;99.09
4085;BME280;2057;50.858;6.572;2023-02-18T09:23:48;100814.25;;;10.16;99.32
4085;BME280;2057;50.858;6.572;2023-02-18T09:26:15;100815.75;;;10.12;99.95
4085;BME280;2057;50.858;6.572;2023-02-18T09:28:41;100816.34;;;10.08;100.00
4085;BME280;2057;50.858;6.572;2023-02-18T09:31:17;100798.78;;;10.11;100.00
4085;BME280;2057;50.858;6.572;2023-02-18T09:33:46;100786.78;;;10.09;100.00
4085;BME280;2057;50.858;6.572;2023-02-18T09:36:12;100824.06;;;10.10;99.54
4085;BME280;2057;50.858;6.572;2023-02-18T09:38:37;100802.97;;;10.11;99.20
4085;BME280;2057;50.858;6.572;2023-02-18T09:41:06;100800.06;;;10.19;99.18
4085;BME280;2057;50.858;6.572;2023-02-18T09:43:37;100790.34;;;10.27;98.99
4085;BME280;2057;50.858;6.572;2023-02-18T09:46:04;100795.16;;;10.38;97.72
4085;BME280;2057;50.858;6.572;2023-02-18T09:48:35;100791.09;;;10.56;97.40
4085;BME280;2057;50.858;6.572;2023-02-18T09:51:01;100785.22;;;10.57;97.06
4085;BME280;2057;50.858;6.572;2023-02-18T09:53:27;100780.78;;;10.53;98.14
4085;BME280;2057;50.858;6.572;2023-02-18T09:55:56;100786.88;;;10.40;99.61
4085;BME280;2057;50.858;6.572;2023-02-18T09:58:25;100785.69;;;10.35;100.00
4085;BME280;2057;50.858;6.572;2023-02-18T10:03:42;100778.88;;;10.19;100.00
4085;BME280;2057;50.858;6.572;2023-02-18T10:06:15;100779.53;;;10.15;100.00
4085;BME280;2057;50.858;6.572;2023-02-18T10:08:45;100779.97;;;10.23;100.00
4085;BME280;2057;50.858;6.572;2023-02-18T10:11:22;100763.66;;;10.19;100.00
4085;BME280;2057;50.858;6.572;2023-02-18T10:13:49;100775.41;;;10.17;100.00
4085;BME280;2057;50.858;6.572;2023-02-18T10:16:17;100779.25;;;10.25;100.00
4085;BME280;2057;50.858;6.572;2023-02-18T10:18:52;100778.81;;;10.17;100.00
4085;BME280;2057;50.858;6.572;2023-02-18T10:21:23;100758.59;;;10.19;100.00
4085;BME280;2057;50.858;6.572;2023-02-18T10:26:28;100757.59;;;10.32;100.00
4085;BME280;2057;50.858;6.572;2023-02-18T10:28:54;100748.41;;;10.34;100.00
4085;BME280;2057;50.858;6.572;2023-02-18T10:31:33;100756.47;;;10.42;100.00
4085;BME280;2057;50.858;6.572;2023-02-18T10:39:58;100776.44;;;10.35;100.00
4085;BME280;2057;50.858;6.572;2023-02-18T10:45:52;100793.13;;;10.32;100.00
4085;BME280;2057;50.858;6.572;2023-02-18T10:51:27;100798.03;;;10.29;100.00
4085;BME280;2057;50.858;6.572;2023-02-18T10:53:53;100789.66;;;10.15;100.00
4085;BME280;2057;50.858;6.572;2023-02-18T10:56:40;100782.91;;;10.15;100.00
4085;BME280;2057;50.858;6.572;2023-02-18T10:59:19;100776.91;;;9.98;100.00
4085;BME280;2057;50.858;6.572;2023-02-18T11:01:53;100781.34;;;10.02;100.00
4085;BME280;2057;50.858;6.572;2023-02-18T11:04:20;100794.69;;;9.83;100.00
4085;BME280;2057;50.858;6.572;2023-02-18T11:06:50;100787.97;;;9.84;100.00
4085;BME280;2057;50.858;6.572;2023-02-18T11:12:21;100782.25;;;9.73;100.00
4085;BME280;2057;50.858;6.572;2023-02-18T11:14:50;100786.63;;;9.76;100.00
4085;BME280;2057;50.858;6.572;2023-02-18T11:17:30;100797.56;;;9.60;100.00
4085;BME280;2057;50.858;6.572;2023-02-18T11:20:01;100792.94;;;9.52;100.00
4085;BME280;2057;50.858;6.572;2023-02-18T11:22:32;100796.06;;;9.48;100.00
4085;BME280;2057;50.858;6.572;2023-02-18T11:25:00;100783.06;;;9.57;100.00
4085;BME280;2057;50.858;6.572;2023-02-18T11:30:13;100781.19;;;9.54;100.00
4085;BME280;2057;50.858;6.572;2023-02-18T11:32:40;100783.31;;;9.62;100.00
4085;BME280;2057;50.858;6.572;2023-02-18T11:35:06;100788.72;;;9.53;100.00
4085;BME280;2057;50.858;6.572;2023-02-18T11:37:32;100790.28;;;9.51;100.00
4085;BME280;2057;50.858;6.572;2023-02-18T11:40:00;100799.81;;;9.55;100.00
4085;BME280;2057;50.858;6.572;2023-02-18T11:42:26;100808.94;;;9.66;100.00
4085;BME280;2057;50.858;6.572;2023-02-18T11:44:56;100808.22;;;9.54;100.00
4085;BME280;2057;50.858;6.572;2023-02-18T11:47:36;100805.69;;;9.54;100.00
4085;BME280;2057;50.858;6.572;2023-02-18T11:52:35;100805.56;;;9.37;100.00
4085;BME280;2057;50.858;6.572;2023-02-18T11:55:13;100806.53;;;9.39;100.00
4085;BME280;2057;50.858;6.572;2023-02-18T11:57:43;100802.84;;;9.34;100.00
4085;BME280;2057;50.858;6.572;2023-02-18T12:03:06;100792.81;;;9.36;100.00
4085;BME280;2057;50.858;6.572;2023-02-18T12:05:33;100805.75;;;9.40;100.00
4085;BME280;2057;50.858;6.572;2023-02-18T12:08:06;100789.06;;;9.44;100.00
4085;BME280;2057;50.858;6.572;2023-02-18T12:10:45;100777.53;;;9.49;100.00
4085;BME280;2057;50.858;6.572;2023-02-18T12:45:54;100795.63;;;9.70;100.00
4085;BME280;2057;50.858;6.572;2023-02-18T12:51:59;100788.75;;;9.83;100.00
4085;BME280;2057;50.858;6.572;2023-02-18T12:55:04;100807.09;;;9.79;100.00
4085;BME280;2057;50.858;6.572;2023-02-18T12:57:47;100800.72;;;9.85;100.00
4085;BME280;2057;50.858;6.572;2023-02-18T13:00:22;100793.38;;;9.90;100.00
4085;BME280;2057;50.858;6.572;2023-02-18T13:03:26;100810.69;;;9.97;100.00
4085;BME280;2057;50.858;6.572;2023-02-18T13:06:15;100812.94;;;9.93;100.00
4085;BME280;2057;50.858;6.572;2023-02-18T13:14:39;100808.91;;;9.81;100.00
4085;BME280;2057;50.858;6.572;2023-02-18T13:17:08;100806.91;;;9.91;100.00
4085;BME280;2057;50.858;6.572;2023-02-18T13:22:11;100807.28;;;9.97;100.00
4085;BME280;2057;50.858;6.572;2023-02-18T13:24:42;100800.59;;;9.99;100.00
4085;BME280;2057;50.858;6.572;2023-02-18T13:27:33;100813.41;;;10.00;100.00
4085;BME280;2057;50.858;6.572;2023-02-18T13:40:34;100798.84;;;10.13;100.00
4085;BME280;2057;50.858;6.572;2023-02-18T13:43:28;100802.34;;;10.15;100.00
4085;BME280;2057;50.858;6.572;2023-02-18T13:49:19;100797.47;;;10.18;100.00
4085;BME280;2057;50.858;6.572;2023-02-18T13:56:44;100813.19;;;10.27;100.00
4085;BME280;2057;50.858;6.572;2023-02-18T13:59:17;100789.03;;;10.19;100.00
4085;BME280;2057;50.858;6.572;2023-02-18T14:01:48;100795.19;;;10.08;100.00
4085;BME280;2057;50.858;6.572;2023-02-18T14:10:25;100802.88;;;10.24;100.00
4085;BME280;2057;50.858;6.572;2023-02-18T14:22:49;100803.59;;;10.07;100.00
4085;BME280;2057;50.858;6.572;2023-02-18T14:27:44;100794.50;;;9.95;100.00
4085;BME280;2057;50.858;6.572;2023-02-18T14:32:49;100789.41;;;9.95;100.00
4085;BME280;2057;50.858;6.572;2023-02-18T14:43:43;100788.03;;;9.85;100.00
4085;BME280;2057;50.858;6.572;2023-02-18T14:48:42;100798.59;;;9.93;100.00
4085;BME280;2057;50.858;6.572;2023-02-18T14:51:14;100805.28;;;9.91;100.00
4085;BME280;2057;50.858;6.572;2023-02-18T14:53:44;100791.16;;;9.96;100.00
4085;BME280;2057;50.858;6.572;2023-02-18T14:56:14;100788.28;;;9.90;100.00
4085;BME280;2057;50.858;6.572;2023-02-18T14:58:43;100796.06;;;9.93;100.00
4085;BME280;2057;50.858;6.572;2023-02-18T15:01:17;100793.78;;;9.98;100.00
4085;BME280;2057;50.858;6.572;2023-02-18T15:03:43;100790.97;;;10.08;100.00
4085;BME280;2057;50.858;6.572;2023-02-18T15:08:52;100798.78;;;9.96;100.00
4085;BME280;2057;50.858;6.572;2023-02-18T15:11:20;100798.19;;;10.00;100.00
4085;BME280;2057;50.858;6.572;2023-02-18T15:13:47;100793.53;;;9.93;100.00
4085;BME280;2057;50.858;6.572;2023-02-18T15:16:29;100793.09;;;9.85;100.00
4085;BME280;2057;50.858;6.572;2023-02-18T15:18:59;100792.22;;;9.85;100.00
4085;BME280;2057;50.858;6.572;2023-02-18T15:21:29;100797.72;;;9.93;100.00
4085;BME280;2057;50.858;6.572;2023-02-18T15:24:08;100795.91;;;9.90;100.00
4085;BME280;2057;50.858;6.572;2023-02-18T15:26:41;100790.84;;;9.90;100.00
4085;BME280;2057;50.858;6.572;2023-02-18T15:29:16;100789.00;;;9.87;100.00
4085;BME280;2057;50.858;6.572;2023-02-18T15:31:43;100804.81;;;9.83;100.00
4085;BME280;2057;50.858;6.572;2023-02-18T15:36:59;100794.22;;;9.76;100.00
4085;BME280;2057;50.858;6.572;2023-02-18T15:39:25;100796.88;;;9.77;100.00
4085;BME280;2057;50.858;6.572;2023-02-18T15:41:55;100791.44;;;9.86;100.00
4085;BME280;2057;50.858;6.572;2023-02-18T15:44:26;100800.97;;;9.90;100.00
4085;BME280;2057;50.858;6.572;2023-02-18T15:46:53;100798.88;;;9.83;100.00
4085;BME280;2057;50.858;6.572;2023-02-18T15:49:21;100791.53;;;9.87;100.00
4085;BME280;2057;50.858;6.572;2023-02-18T15:51:48;100794.94;;;9.88;100.00
4085;BME280;2057;50.858;6.572;2023-02-18T15:54:19;100793.25;;;9.88;100.00
4085;BME280;2057;50.858;6.572;2023-02-18T15:56:50;100801.69;;;9.87;100.00
4085;BME280;2057;50.858;6.572;2023-02-18T16:01:46;100789.69;;;9.85;100.00